createdAt,value
2023-03-19T00:00:42.824Z,5.30
2023-03-19T00:03:10.087Z,5.20
2023-03-19T00:05:37.334Z,5.20
2023-03-19T00:08:04.734Z,5.10
2023-03-19T00:10:31.862Z,5.10
2023-03-19T00:12:58.947Z,5.00
2023-03-19T00:15:26.954Z,5.00
2023-03-19T00:17:54.497Z,5.00
2023-03-19T00:20:22.387Z,5.00
2023-03-19T00:22:49.587Z,5.00
2023-03-19T00:25:17.505Z,4.90
2023-03-19T00:27:44.800Z,4.90
2023-03-19T00:30:12.519Z,4.90
2023-03-19T00:32:40.659Z,4.80
2023-03-19T00:35:08.987Z,4.80
2023-03-19T00:37:36.693Z,4.70
2023-03-19T00:40:04.750Z,4.70
2023-03-19T00:42:32.089Z,4.70
2023-03-19T00:44:59.151Z,4.70
2023-03-19T00:47:27.235Z,4.60
2023-03-19T00:49:54.331Z,4.60
2023-03-19T00:52:21.489Z,4.60
2023-03-19T00:54:48.685Z,4.60
2023-03-19T00:57:15.995Z,4.50
2023-03-19T00:59:43.023Z,4.50
2023-03-19T01:02:10.037Z,4.50
2023-03-19T01:04:37.155Z,4.40
2023-03-19T01:07:04.311Z,4.40
2023-03-19T01:09:31.374Z,4.40
2023-03-19T01:11:58.575Z,4.40
2023-03-19T01:14:25.866Z,4.30
2023-03-19T01:16:52.940Z,4.30
2023-03-19T01:19:20.250Z,4.30
2023-03-19T01:21:47.376Z,4.20
2023-03-19T01:24:14.504Z,4.20
2023-03-19T01:26:41.736Z,4.10
2023-03-19T01:29:09.893Z,4.10
2023-03-19T01:31:37.544Z,4.10
2023-03-19T01:34:05.013Z,4.10
2023-03-19T01:36:32.420Z,4.10
2023-03-19T01:38:59.651Z,4.10
2023-03-19T01:41:27.418Z,4.00
2023-03-19T01:43:54.558Z,4.00
2023-03-19T01:46:38.116Z,4.00
2023-03-19T01:49:09.272Z,4.00
2023-03-19T01:51:41.720Z,4.00
2023-03-19T01:54:14.616Z,4.00
2023-03-19T01:56:43.409Z,4.00
2023-03-19T01:59:23.658Z,4.00
2023-03-19T02:01:57.626Z,4.00
2023-03-19T02:04:27.339Z,3.90
2023-03-19T02:06:56.935Z,3.90
2023-03-19T02:09:26.408Z,3.90
2023-03-19T02:11:54.651Z,3.90
2023-03-19T02:14:22.428Z,3.90
2023-03-19T02:16:49.891Z,3.80
2023-03-19T02:19:40.049Z,3.80
2023-03-19T02:22:08.919Z,3.80
2023-03-19T02:24:44.915Z,3.80
2023-03-19T02:27:12.400Z,3.70
2023-03-19T02:29:39.452Z,3.70
2023-03-19T02:32:07.016Z,3.70
2023-03-19T02:34:37.599Z,3.60
2023-03-19T02:37:11.098Z,3.60
2023-03-19T02:40:08.021Z,3.60
2023-03-19T02:42:35.582Z,3.60
2023-03-19T02:45:02.781Z,3.50
2023-03-19T02:47:29.874Z,3.50
2023-03-19T02:49:57.064Z,3.50
2023-03-19T02:52:24.507Z,3.50
2023-03-19T02:54:51.613Z,3.40
2023-03-19T02:57:18.818Z,3.50
2023-03-19T02:59:45.954Z,3.40
2023-03-19T03:02:13.692Z,3.30
2023-03-19T03:04:41.806Z,3.30
2023-03-19T03:07:09.328Z,3.30
2023-03-19T03:09:36.490Z,3.40
2023-03-19T03:12:03.786Z,3.30
2023-03-19T03:14:30.953Z,3.30
2023-03-19T03:16:58.885Z,3.30
2023-03-19T03:19:26.218Z,3.40
2023-03-19T03:21:53.370Z,3.40
2023-03-19T03:24:20.635Z,3.40
2023-03-19T03:26:47.678Z,3.40
2023-03-19T03:29:14.663Z,3.40
2023-03-19T03:31:42.146Z,3.40
2023-03-19T03:34:09.547Z,3.40
2023-03-19T03:36:37.624Z,3.30
2023-03-19T03:39:04.982Z,3.20
2023-03-19T03:41:32.159Z,3.20
2023-03-19T03:43:59.278Z,3.20
2023-03-19T03:46:26.380Z,3.20
2023-03-19T03:48:53.443Z,3.20
2023-03-19T03:51:20.797Z,3.20
2023-03-19T03:53:47.950Z,3.20
2023-03-19T03:56:15.166Z,3.20
2023-03-19T03:58:42.541Z,3.20
2023-03-19T04:01:15.852Z,3.20
2023-03-19T04:03:42.674Z,3.10
2023-03-19T04:06:18.840Z,3.10
2023-03-19T04:08:46.131Z,3.10
2023-03-19T04:11:13.787Z,3.10
2023-03-19T04:13:41.682Z,3.10
2023-03-19T04:16:11.179Z,3.00
2023-03-19T04:18:38.916Z,3.00
2023-03-19T04:21:07.198Z,3.00
2023-03-19T04:23:34.272Z,3.00
2023-03-19T04:26:03.404Z,2.90
2023-03-19T04:28:31.363Z,2.90
2023-03-19T04:31:06.510Z,2.80
2023-03-19T04:33:34.259Z,2.90
2023-03-19T04:36:01.498Z,2.90
2023-03-19T04:38:28.738Z,2.90
2023-03-19T04:40:56.808Z,2.90
2023-03-19T04:43:24.520Z,2.80
2023-03-19T04:45:52.138Z,2.80
2023-03-19T04:48:19.413Z,2.80
2023-03-19T04:50:47.441Z,2.90
2023-03-19T04:53:14.566Z,2.90
2023-03-19T04:55:41.915Z,2.80
2023-03-19T04:58:09.328Z,2.80
2023-03-19T05:00:36.571Z,2.80
2023-03-19T05:03:03.895Z,2.90
2023-03-19T05:05:31.491Z,2.90
2023-03-19T05:07:58.746Z,3.00
2023-03-19T05:10:25.928Z,3.00
2023-03-19T05:12:52.966Z,3.00
2023-03-19T05:15:20.130Z,3.00
2023-03-19T05:17:47.238Z,3.10
2023-03-19T05:20:14.529Z,3.10
2023-03-19T05:22:41.922Z,3.20
2023-03-19T05:25:09.829Z,3.30
2023-03-19T05:27:37.221Z,3.40
2023-03-19T05:30:06.129Z,3.50
2023-03-19T05:32:34.164Z,3.60
2023-03-19T05:35:01.342Z,3.70
2023-03-19T05:37:28.341Z,3.70
2023-03-19T05:39:55.683Z,3.80
2023-03-19T05:42:22.833Z,4.00
2023-03-19T05:44:50.199Z,4.00
2023-03-19T05:47:17.513Z,4.10
2023-03-19T05:49:44.581Z,4.20
2023-03-19T05:52:11.961Z,4.20
2023-03-19T05:54:39.103Z,4.40
2023-03-19T05:57:06.285Z,4.50
2023-03-19T05:59:33.719Z,4.60
2023-03-19T06:02:00.828Z,4.70
2023-03-19T06:04:28.019Z,4.80
2023-03-19T06:06:55.142Z,4.90
2023-03-19T06:09:22.293Z,4.90
2023-03-19T06:11:49.410Z,5.00
2023-03-19T06:14:16.624Z,5.10
2023-03-19T06:16:43.811Z,5.20
2023-03-19T06:19:11.508Z,5.30
2023-03-19T06:21:38.623Z,5.40
2023-03-19T06:24:06.648Z,5.50
2023-03-19T06:26:34.054Z,5.60
2023-03-19T06:29:01.461Z,5.80
2023-03-19T06:31:28.684Z,5.90
2023-03-19T06:33:56.557Z,6.00
2023-03-19T06:36:23.864Z,6.00
2023-03-19T06:38:51.150Z,6.00
2023-03-19T06:41:18.357Z,6.10
2023-03-19T06:43:45.637Z,6.40
2023-03-19T06:46:13.257Z,6.70
2023-03-19T06:48:40.434Z,7.00
2023-03-19T06:51:07.648Z,7.30
2023-03-19T06:53:34.809Z,7.60
2023-03-19T06:56:01.964Z,7.50
2023-03-19T06:58:29.161Z,7.80
2023-03-19T07:00:56.979Z,8.20
2023-03-19T07:03:24.500Z,8.40
2023-03-19T07:05:52.109Z,8.60
2023-03-19T07:08:19.439Z,8.90
2023-03-19T07:10:46.539Z,9.00
2023-03-19T07:13:13.610Z,9.30
2023-03-19T07:15:40.726Z,9.70
2023-03-19T07:18:07.843Z,10.10
2023-03-19T07:20:35.233Z,10.40
2023-03-19T07:23:02.740Z,10.80
2023-03-19T07:25:30.034Z,11.10
2023-03-19T07:27:57.141Z,11.60
2023-03-19T07:30:24.592Z,12.00
2023-03-19T07:32:51.873Z,11.90
2023-03-19T07:35:19.147Z,12.00
2023-03-19T07:37:46.301Z,12.30
2023-03-19T07:40:13.619Z,12.30
2023-03-19T07:42:41.210Z,12.30
2023-03-19T07:45:09.646Z,12.10
2023-03-19T07:47:37.288Z,12.30
2023-03-19T07:50:04.890Z,12.30
2023-03-19T07:52:32.256Z,12.50
2023-03-19T07:54:59.534Z,12.50
2023-03-19T07:57:27.299Z,12.50
2023-03-19T07:59:54.486Z,12.50
2023-03-19T08:02:23.055Z,12.50
2023-03-19T08:04:51.030Z,12.40
2023-03-19T08:07:18.253Z,12.30
2023-03-19T08:09:45.303Z,12.30
2023-03-19T08:12:12.698Z,12.30
2023-03-19T08:14:39.987Z,12.40
2023-03-19T08:17:08.508Z,12.50
2023-03-19T08:19:35.695Z,12.60
2023-03-19T08:22:02.763Z,12.60
2023-03-19T08:24:29.845Z,12.70
2023-03-19T08:26:56.900Z,12.90
2023-03-19T08:29:26.517Z,13.10
2023-03-19T08:31:54.933Z,13.30
2023-03-19T08:34:22.971Z,13.20
2023-03-19T08:36:50.631Z,13.40
2023-03-19T08:39:17.768Z,13.50
2023-03-19T08:41:44.885Z,13.60
2023-03-19T08:44:11.952Z,13.70
2023-03-19T08:46:39.965Z,13.70
2023-03-19T08:49:07.147Z,13.80
2023-03-19T08:51:34.312Z,14.00
2023-03-19T08:54:01.501Z,14.40
2023-03-19T08:56:28.658Z,14.70
2023-03-19T08:58:57.175Z,15.10
2023-03-19T09:01:24.619Z,15.40
2023-03-19T09:03:51.855Z,15.60
2023-03-19T09:06:18.940Z,15.70
2023-03-19T09:08:46.334Z,15.70
2023-03-19T09:11:14.865Z,15.70
2023-03-19T09:13:41.970Z,15.80
2023-03-19T09:16:09.411Z,15.90
2023-03-19T09:18:36.724Z,15.80
2023-03-19T09:21:04.364Z,15.90
2023-03-19T09:23:31.456Z,15.90
2023-03-19T09:25:58.553Z,15.90
2023-03-19T09:28:25.993Z,15.80
2023-03-19T09:30:53.876Z,16.00
2023-03-19T09:33:21.716Z,16.20
2023-03-19T09:35:53.805Z,16.30
2023-03-19T09:38:22.449Z,16.30
2023-03-19T09:41:19.198Z,16.40
2023-03-19T09:44:14.744Z,16.50
2023-03-19T09:46:49.133Z,16.70
2023-03-19T09:49:28.540Z,16.90
2023-03-19T09:52:09.592Z,16.90
2023-03-19T09:54:39.591Z,17.10
2023-03-19T09:57:10.139Z,17.00
2023-03-19T09:59:38.468Z,17.00
2023-03-19T10:02:14.220Z,17.30
2023-03-19T10:04:43.870Z,17.50
2023-03-19T10:07:20.021Z,17.50
2023-03-19T10:09:53.464Z,17.60
2023-03-19T10:12:53.736Z,17.80
2023-03-19T10:15:31.215Z,18.10
2023-03-19T10:18:20.089Z,18.00
2023-03-19T10:20:53.142Z,18.30
2023-03-19T10:23:46.464Z,18.60
2023-03-19T10:26:19.881Z,18.50
2023-03-19T10:29:15.934Z,18.50
2023-03-19T10:32:00.888Z,18.50
2023-03-19T10:34:36.566Z,18.50
2023-03-19T10:37:20.863Z,18.70
2023-03-19T10:39:50.397Z,18.80
2023-03-19T10:42:20.474Z,18.60
2023-03-19T10:45:02.203Z,18.70
2023-03-19T10:47:29.331Z,19.10
2023-03-19T10:49:57.348Z,19.40
2023-03-19T10:52:36.969Z,19.60
2023-03-19T10:55:04.127Z,20.00
2023-03-19T10:57:34.426Z,20.30
2023-03-19T11:00:07.290Z,20.20
2023-03-19T11:02:36.209Z,20.20
2023-03-19T11:05:24.987Z,20.20
2023-03-19T11:08:06.752Z,20.40
2023-03-19T11:10:36.124Z,20.60
2023-03-19T11:13:24.548Z,20.90
2023-03-19T11:15:55.017Z,20.90
2023-03-19T11:18:29.488Z,21.20
2023-03-19T11:21:04.988Z,21.20
2023-03-19T11:23:41.921Z,21.20
2023-03-19T11:26:10.577Z,21.60
2023-03-19T11:28:38.230Z,21.50
2023-03-19T11:31:15.682Z,21.60
2023-03-19T11:33:48.111Z,21.60
2023-03-19T11:36:34.118Z,21.60
2023-03-19T11:39:07.097Z,21.30
2023-03-19T11:41:34.448Z,21.20
2023-03-19T11:44:43.770Z,21.10
2023-03-19T11:47:27.370Z,21.30
2023-03-19T11:50:33.753Z,21.00
2023-03-19T11:53:11.003Z,20.80
2023-03-19T11:56:15.424Z,20.80
2023-03-19T11:58:57.937Z,20.60
2023-03-19T12:02:06.222Z,20.60
2023-03-19T12:04:51.857Z,20.50
2023-03-19T12:08:05.943Z,20.70
2023-03-19T12:10:53.842Z,21.10
2023-03-19T12:13:45.256Z,21.00
2023-03-19T12:16:15.532Z,21.00
2023-03-19T12:19:04.054Z,21.00
2023-03-19T12:21:38.117Z,20.90
2023-03-19T12:24:33.718Z,20.90
2023-03-19T12:27:38.980Z,21.00
2023-03-19T12:30:27.130Z,20.90
2023-03-19T12:33:26.048Z,21.00
2023-03-19T12:35:57.051Z,21.20
2023-03-19T12:38:31.930Z,21.30
2023-03-19T12:41:04.211Z,21.10
2023-03-19T12:43:38.322Z,21.30
2023-03-19T12:46:12.093Z,21.50
2023-03-19T12:48:47.464Z,21.40
2023-03-19T12:51:20.405Z,21.40
2023-03-19T12:54:16.585Z,21.40
2023-03-19T12:56:53.555Z,21.30
2023-03-19T12:59:33.774Z,21.30
2023-03-19T13:02:19.189Z,21.30
2023-03-19T13:04:57.175Z,21.20
2023-03-19T13:08:03.247Z,21.30
2023-03-19T13:10:32.571Z,21.40
2023-03-19T13:13:04.364Z,21.70
2023-03-19T13:15:41.505Z,21.70
2023-03-19T13:18:26.630Z,21.80
2023-03-19T13:21:21.083Z,21.60
2023-03-19T13:23:52.025Z,21.80
2023-03-19T13:26:19.461Z,21.60
2023-03-19T13:29:03.105Z,21.80
2023-03-19T13:31:35.213Z,21.80
2023-03-19T13:34:25.591Z,21.80
2023-03-19T13:36:59.588Z,21.90
2023-03-19T13:39:29.952Z,22.00
2023-03-19T13:42:24.494Z,22.00
2023-03-19T13:45:03.588Z,22.20
2023-03-19T13:47:36.460Z,22.10
2023-03-19T13:50:21.557Z,21.80
2023-03-19T13:52:53.376Z,21.80
2023-03-19T13:55:30.202Z,21.60
2023-03-19T13:58:12.826Z,21.80
2023-03-19T14:00:46.000Z,22.20
2023-03-19T14:03:56.366Z,21.80
2023-03-19T14:06:39.949Z,21.70
2023-03-19T14:09:32.928Z,21.80
2023-03-19T14:12:22.336Z,21.90
2023-03-19T14:15:01.444Z,22.10
2023-03-19T14:17:53.755Z,22.20
2023-03-19T14:20:39.310Z,21.70
2023-03-19T14:23:39.612Z,21.70
2023-03-19T14:26:29.642Z,21.80
2023-03-19T14:29:01.658Z,22.00
2023-03-19T14:31:51.670Z,21.90
2023-03-19T14:34:39.914Z,21.80
2023-03-19T14:37:37.264Z,21.70
2023-03-19T14:40:20.753Z,22.00
2023-03-19T14:43:26.284Z,22.10
2023-03-19T14:46:10.417Z,22.00
2023-03-19T14:49:03.606Z,22.10
2023-03-19T14:51:50.631Z,21.90
2023-03-19T14:54:28.165Z,21.90
2023-03-19T14:57:04.627Z,21.60
2023-03-19T14:59:47.840Z,21.40
2023-03-19T15:02:36.900Z,21.40
2023-03-19T15:05:18.017Z,21.30
2023-03-19T15:07:56.436Z,21.20
2023-03-19T15:10:39.202Z,21.10
2023-03-19T15:13:21.142Z,21.00
2023-03-19T15:16:26.552Z,21.00
2023-03-19T15:19:01.604Z,21.00
2023-03-19T15:21:36.530Z,20.90
2023-03-19T15:24:13.487Z,20.80
2023-03-19T15:26:51.174Z,20.70
2023-03-19T15:29:38.168Z,20.70
2023-03-19T15:32:15.975Z,20.60
2023-03-19T15:34:51.816Z,20.70
2023-03-19T15:37:28.881Z,20.70
2023-03-19T15:40:06.605Z,20.50
2023-03-19T15:42:44.002Z,20.50
2023-03-19T15:45:23.028Z,20.50
2023-03-19T15:47:55.857Z,20.40
2023-03-19T15:50:34.077Z,20.40
2023-03-19T15:53:18.245Z,20.30
2023-03-19T15:55:50.470Z,20.30
2023-03-19T15:58:32.585Z,20.30
2023-03-19T16:01:12.548Z,20.10
2023-03-19T16:03:51.932Z,20.00
2023-03-19T16:06:44.763Z,20.00
2023-03-19T16:09:24.214Z,19.80
2023-03-19T16:11:52.182Z,19.70
2023-03-19T16:14:27.421Z,19.60
2023-03-19T16:17:14.999Z,19.40
2023-03-19T16:19:52.817Z,19.20
2023-03-19T16:22:25.712Z,19.10
2023-03-19T16:24:53.988Z,19.00
2023-03-19T16:27:33.442Z,18.90
2023-03-19T16:30:01.678Z,18.80
2023-03-19T16:32:32.706Z,18.80
2023-03-19T16:35:20.892Z,18.70
2023-03-19T16:37:49.612Z,18.70
2023-03-19T16:40:22.205Z,18.60
2023-03-19T16:43:06.186Z,18.50
2023-03-19T16:45:35.012Z,18.50
2023-03-19T16:48:03.687Z,18.40
2023-03-19T16:50:35.454Z,18.40
2023-03-19T16:53:05.675Z,18.40
2023-03-19T16:55:35.808Z,18.30
2023-03-19T16:58:09.034Z,18.00
2023-03-19T17:00:36.506Z,17.90
2023-03-19T17:03:03.751Z,17.70
2023-03-19T17:05:31.230Z,17.50
2023-03-19T17:07:58.554Z,17.40
2023-03-19T17:10:28.826Z,17.30
2023-03-19T17:12:56.922Z,17.20
2023-03-19T17:15:31.592Z,17.00
2023-03-19T17:17:59.759Z,16.90
2023-03-19T17:20:38.727Z,16.80
2023-03-19T17:23:11.417Z,16.80
2023-03-19T17:25:38.605Z,16.90
2023-03-19T17:28:06.490Z,16.80
2023-03-19T17:30:34.695Z,16.70
2023-03-19T17:33:02.279Z,16.70
2023-03-19T17:35:29.523Z,16.60
2023-03-19T17:37:56.733Z,16.50
2023-03-19T17:40:29.476Z,16.50
2023-03-19T17:42:57.154Z,16.40
2023-03-19T17:45:29.814Z,16.40
2023-03-19T17:47:58.896Z,16.40
2023-03-19T17:50:31.542Z,16.40
2023-03-19T17:53:00.178Z,16.40
2023-03-19T17:55:30.055Z,16.40
2023-03-19T17:57:57.240Z,16.30
2023-03-19T18:00:25.147Z,16.30
2023-03-19T18:02:54.390Z,16.20
2023-03-19T18:05:24.390Z,16.10
2023-03-19T18:07:54.615Z,16.10
2023-03-19T18:10:27.903Z,16.00
2023-03-19T18:12:55.223Z,15.90
2023-03-19T18:15:23.991Z,15.70
2023-03-19T18:17:59.173Z,15.70
2023-03-19T18:20:38.801Z,15.60
2023-03-19T18:23:08.046Z,15.50
2023-03-19T18:25:35.812Z,15.50
2023-03-19T18:28:09.694Z,15.50
2023-03-19T18:30:39.381Z,15.40
2023-03-19T18:33:12.002Z,15.40
2023-03-19T18:35:43.808Z,15.30
2023-03-19T18:38:16.878Z,15.20
2023-03-19T18:40:45.656Z,15.10
2023-03-19T18:43:19.723Z,15.10
2023-03-19T18:45:51.279Z,15.00
2023-03-19T18:48:26.697Z,15.00
2023-03-19T18:50:54.985Z,14.90
2023-03-19T18:53:23.567Z,14.90
2023-03-19T18:55:51.576Z,14.90
2023-03-19T18:58:22.168Z,14.90
2023-03-19T19:00:50.994Z,14.80
2023-03-19T19:03:21.788Z,14.80
2023-03-19T19:05:50.218Z,14.70
2023-03-19T19:08:19.651Z,14.70
2023-03-19T19:10:53.742Z,14.70
2023-03-19T19:13:27.574Z,14.70
2023-03-19T19:15:55.084Z,14.60
2023-03-19T19:18:26.243Z,14.60
2023-03-19T19:20:54.548Z,14.50
2023-03-19T19:23:26.894Z,14.50
2023-03-19T19:25:57.500Z,14.40
2023-03-19T19:28:28.285Z,14.40
2023-03-19T19:30:57.812Z,14.40
2023-03-19T19:33:36.373Z,14.30
2023-03-19T19:36:07.750Z,14.30
2023-03-19T19:38:36.692Z,14.30
2023-03-19T19:41:03.876Z,14.30
2023-03-19T19:43:31.551Z,14.20
2023-03-19T19:46:00.613Z,14.30
2023-03-19T19:48:29.577Z,14.30
2023-03-19T19:50:57.105Z,14.20
2023-03-19T19:53:26.371Z,14.20
2023-03-19T19:55:53.980Z,14.20
2023-03-19T19:58:31.550Z,14.20
2023-03-19T20:01:04.252Z,14.20
2023-03-19T20:03:34.003Z,14.20
2023-03-19T20:06:02.150Z,14.20
2023-03-19T20:08:29.503Z,14.20
2023-03-19T20:10:57.469Z,14.10
2023-03-19T20:13:29.175Z,14.10
2023-03-19T20:15:58.706Z,14.00
2023-03-19T20:18:30.940Z,14.00
2023-03-19T20:20:59.616Z,14.00
2023-03-19T20:23:26.851Z,14.00
2023-03-19T20:25:55.166Z,14.00
2023-03-19T20:28:25.588Z,13.90
2023-03-19T20:30:55.243Z,13.90
2023-03-19T20:33:23.008Z,14.00
2023-03-19T20:35:50.911Z,13.90
2023-03-19T20:38:18.493Z,13.90
2023-03-19T20:40:53.247Z,13.90
2023-03-19T20:43:27.932Z,13.90
2023-03-19T20:46:06.288Z,13.80
2023-03-19T20:48:34.224Z,13.80
2023-03-19T20:51:02.603Z,13.70
2023-03-19T20:53:30.172Z,13.70
2023-03-19T20:55:57.687Z,13.60
2023-03-19T20:58:29.303Z,13.50
2023-03-19T21:00:58.116Z,13.40
2023-03-19T21:03:30.429Z,13.40
2023-03-19T21:06:06.873Z,13.40
2023-03-19T21:08:43.423Z,13.40
2023-03-19T21:11:21.092Z,13.40
2023-03-19T21:13:51.153Z,13.40
2023-03-19T21:16:24.685Z,13.40
2023-03-19T21:18:54.013Z,13.40
2023-03-19T21:21:31.473Z,13.40
2023-03-19T21:24:17.381Z,13.40
2023-03-19T21:26:49.276Z,13.30
2023-03-19T21:29:26.301Z,13.30
2023-03-19T21:31:54.932Z,13.20
2023-03-19T21:34:22.485Z,13.10
2023-03-19T21:36:49.602Z,13.00
2023-03-19T21:39:18.257Z,12.90
2023-03-19T21:41:47.380Z,12.90
2023-03-19T21:44:18.319Z,12.80
2023-03-19T21:46:46.946Z,12.70
2023-03-19T21:49:14.804Z,12.60
2023-03-19T21:51:44.681Z,12.50
2023-03-19T21:54:11.898Z,12.40
2023-03-19T21:56:44.203Z,12.40
2023-03-19T21:59:23.090Z,12.30
2023-03-19T22:01:51.089Z,12.30
2023-03-19T22:04:19.449Z,12.20
2023-03-19T22:06:47.097Z,12.10
2023-03-19T22:09:14.116Z,12.10
2023-03-19T22:11:46.131Z,12.10
2023-03-19T22:14:21.673Z,12.10
2023-03-19T22:16:53.557Z,12.10
2023-03-19T22:19:20.872Z,12.10
2023-03-19T22:21:48.408Z,12.00
2023-03-19T22:24:16.290Z,12.00
2023-03-19T22:26:44.098Z,11.90
2023-03-19T22:29:23.785Z,11.90
2023-03-19T22:31:52.575Z,11.80
2023-03-19T22:34:22.365Z,11.80
2023-03-19T22:36:50.079Z,11.70
2023-03-19T22:39:17.360Z,11.70
2023-03-19T22:41:48.069Z,11.60
2023-03-19T22:44:30.575Z,11.60
2023-03-19T22:47:00.963Z,11.60
2023-03-19T22:49:29.886Z,11.60
2023-03-19T22:51:57.838Z,11.60
2023-03-19T22:54:25.396Z,11.60
2023-03-19T22:56:52.473Z,11.60
2023-03-19T22:59:20.404Z,11.60
2023-03-19T23:01:48.502Z,11.50
2023-03-19T23:04:22.144Z,11.50
2023-03-19T23:06:50.270Z,11.40
2023-03-19T23:09:20.645Z,11.40
2023-03-19T23:11:48.608Z,11.30
2023-03-19T23:14:28.542Z,11.30
2023-03-19T23:19:31.092Z,11.20
2023-03-19T23:21:59.405Z,11.30
2023-03-19T23:24:28.038Z,11.30
2023-03-19T23:26:57.295Z,11.20
2023-03-19T23:29:31.191Z,11.30
2023-03-19T23:31:58.764Z,11.20
2023-03-19T23:34:26.984Z,11.20
2023-03-19T23:36:54.142Z,11.20
2023-03-19T23:39:21.223Z,11.20
2023-03-19T23:41:53.181Z,11.20
2023-03-19T23:44:20.576Z,11.10
2023-03-19T23:46:49.642Z,11.10
2023-03-19T23:49:26.969Z,11.00
2023-03-19T23:51:54.009Z,11.00
2023-03-19T23:54:39.388Z,10.90
2023-03-19T23:57:12.786Z,10.90
2023-03-19T23:59:41.896Z,10.80
